Time;durP1;ratioP1;P1;durP2;ratioP2;P2;SDS_P1;SDS_P2;PMS_P1;PMS_P2;Temp;Humidity;BMP_temperature;BMP_pressure;BME280_temperature;BME280_humidity;BME280_pressure;Samples;Min_cycle;Max_cycle;Signal;HPM_P1;HPM_P2
2022/06/18 00:02:15;;;;;;;19.33;4.90;;;;;;;;;;5076239;28;20103;-70
2022/06/18 00:04:43;;;;;;;11.07;4.32;;;;;;;;;;5077762;28;20041;-71
2022/06/18 00:07:19;;;;;;;15.70;4.20;;;;;;;;;;5072811;28;20089;-71
2022/06/18 00:09:56;;;;;;;14.52;4.50;;;;;;;;;;5070263;28;20496;-71
2022/06/18 00:15:21;;;;;;;14.70;4.57;;;;;;;;;;5060772;28;20044;-75
2022/06/18 00:17:48;;;;;;;13.55;4.45;;;;;;;;;;5059809;28;20048;-71
2022/06/18 00:20:16;;;;;;;12.90;4.20;;;;;;;;;;5054545;28;20037;-76
2022/06/18 00:22:47;;;;;;;12.13;4.43;;;;;;;;;;5063638;28;20048;-77
2022/06/18 00:25:34;;;;;;;12.43;4.05;;;;;;;;;;5056566;28;20167;-75
2022/06/18 00:28:01;;;;;;;17.10;4.43;;;;;;;;;;5062640;28;20049;-73
2022/06/18 00:30:29;;;;;;;14.23;4.45;;;;;;;;;;5055638;28;20489;-76
2022/06/18 00:32:55;;;;;;;11.57;4.20;;;;;;;;;;5067323;28;20051;-75
2022/06/18 00:35:21;;;;;;;11.65;3.83;;;;;;;;;;5060077;28;20044;-71
2022/06/18 00:37:56;;;;;;;12.45;4.15;;;;;;;;;;5056426;28;20147;-72
2022/06/18 00:40:32;;;;;;;26.08;4.22;;;;;;;;;;5058625;28;20264;-76
2022/06/18 00:43:04;;;;;;;17.98;4.28;;;;;;;;;;5059845;28;20055;-71
2022/06/18 00:45:31;;;;;;;17.15;4.78;;;;;;;;;;5061844;28;20044;-74
2022/06/18 00:48:06;;;;;;;12.00;3.92;;;;;;;;;;5069885;28;20072;-72
2022/06/18 00:51:09;;;;;;;22.13;5.15;;;;;;;;;;5054039;28;20041;-72
2022/06/18 00:53:49;;;;;;;14.07;4.68;;;;;;;;;;5059276;28;20175;-73
2022/06/18 00:56:18;;;;;;;13.18;4.72;;;;;;;;;;5056876;28;20049;-70
2022/06/18 00:58:51;;;;;;;13.82;4.50;;;;;;;;;;5057659;28;20040;-71
2022/06/18 01:01:28;;;;;;;10.90;4.47;;;;;;;;;;5059581;28;20080;-70
2022/06/18 01:03:55;;;;;;;17.30;5.00;;;;;;;;;;5062537;28;20056;-70
2022/06/18 01:06:28;;;;;;;12.90;4.57;;;;;;;;;;5063103;28;20687;-78
2022/06/18 01:09:06;;;;;;;16.77;4.40;;;;;;;;;;5054556;28;20056;-71
2022/06/18 01:11:36;;;;;;;13.40;4.30;;;;;;;;;;5058475;28;20553;-74
2022/06/18 01:14:05;;;;;;;15.95;3.90;;;;;;;;;;5060240;28;20490;-70
2022/06/18 01:16:33;;;;;;;14.35;4.32;;;;;;;;;;5067063;28;20565;-73
2022/06/18 01:19:00;;;;;;;13.57;4.47;;;;;;;;;;5065174;28;20147;-69
2022/06/18 01:21:50;;;;;;;20.42;4.35;;;;;;;;;;5059858;28;20064;-73
2022/06/18 01:24:16;;;;;;;11.23;4.28;;;;;;;;;;5055838;28;20653;-69
2022/06/18 01:26:44;;;;;;;20.25;4.20;;;;;;;;;;5061662;28;20482;-72
2022/06/18 01:29:10;;;;;;;12.85;3.30;;;;;;;;;;5060474;28;20049;-75
2022/06/18 01:31:36;;;;;;;15.13;4.15;;;;;;;;;;5054254;28;20117;-75
2022/06/18 01:34:04;;;;;;;13.88;3.90;;;;;;;;;;5067616;28;20494;-71
2022/06/18 01:36:33;;;;;;;13.75;3.65;;;;;;;;;;5055784;28;20477;-69
2022/06/18 01:39:00;;;;;;;16.70;4.10;;;;;;;;;;5065759;28;20044;-72
2022/06/18 01:41:49;;;;;;;16.80;3.67;;;;;;;;;;5060353;28;20526;-75
2022/06/18 01:44:37;;;;;;;13.00;3.50;;;;;;;;;;5061742;28;20455;-74
2022/06/18 01:47:09;;;;;;;10.13;3.90;;;;;;;;;;5064978;28;20048;-79
2022/06/18 01:49:41;;;;;;;14.25;3.95;;;;;;;;;;5064386;28;20467;-74
2022/06/18 01:52:09;;;;;;;18.02;3.90;;;;;;;;;;5052459;28;20049;-69
2022/06/18 01:54:41;;;;;;;12.70;3.50;;;;;;;;;;5049665;28;20455;-69
2022/06/18 01:57:14;;;;;;;12.35;3.83;;;;;;;;;;5062661;28;20390;-69
2022/06/18 01:59:46;;;;;;;11.63;3.90;;;;;;;;;;5057024;28;20127;-72
2022/06/18 02:02:12;;;;;;;13.15;3.90;;;;;;;;;;5053483;28;20136;-69
2022/06/18 02:04:38;;;;;;;12.73;3.67;;;;;;;;;;5065911;28;20094;-70
2022/06/18 02:07:06;;;;;;;14.40;3.55;;;;;;;;;;5057890;28;20080;-70
2022/06/18 02:09:37;;;;;;;10.20;3.47;;;;;;;;;;5051131;28;20044;-71
2022/06/18 02:12:09;;;;;;;10.50;3.40;;;;;;;;;;5052244;28;20109;-71
2022/06/18 02:14:39;;;;;;;10.90;3.42;;;;;;;;;;5056893;28;20048;-76
2022/06/18 02:17:08;;;;;;;10.18;3.70;;;;;;;;;;5061624;28;20532;-76
2022/06/18 02:19:39;;;;;;;12.02;3.88;;;;;;;;;;5064219;28;20040;-76
2022/06/18 02:22:08;;;;;;;13.32;3.55;;;;;;;;;;5056455;28;20052;-72
2022/06/18 02:24:34;;;;;;;13.50;3.60;;;;;;;;;;5067780;28;20052;-70
2022/06/18 02:27:00;;;;;;;11.98;3.35;;;;;;;;;;5065931;28;20080;-72
2022/06/18 02:29:29;;;;;;;11.30;3.45;;;;;;;;;;5061358;28;20040;-71
2022/06/18 02:31:55;;;;;;;11.40;3.45;;;;;;;;;;5052975;28;20056;-71
2022/06/18 02:34:28;;;;;;;16.08;4.00;;;;;;;;;;5062424;28;20040;-71
2022/06/18 02:36:55;;;;;;;10.65;3.28;;;;;;;;;;5062106;28;20056;-75
2022/06/18 02:39:40;;;;;;;12.65;3.65;;;;;;;;;;5054918;28;20147;-76
2022/06/18 02:42:12;;;;;;;10.73;3.08;;;;;;;;;;5054908;28;20058;-73
2022/06/18 02:44:44;;;;;;;10.07;3.17;;;;;;;;;;5053119;28;20040;-74
2022/06/18 02:47:12;;;;;;;10.60;3.35;;;;;;;;;;5059114;28;20151;-69
2022/06/18 02:49:45;;;;;;;11.45;3.38;;;;;;;;;;5054161;28;20037;-70
2022/06/18 02:52:13;;;;;;;7.72;3.05;;;;;;;;;;5060828;28;20055;-69
2022/06/18 02:54:38;;;;;;;9.68;3.15;;;;;;;;;;5060937;28;20044;-72
2022/06/18 02:57:10;;;;;;;9.77;3.40;;;;;;;;;;5063800;28;20043;-69
2022/06/18 02:59:36;;;;;;;12.45;3.00;;;;;;;;;;5061997;28;20075;-68
2022/06/18 03:02:01;;;;;;;14.82;3.38;;;;;;;;;;5056493;28;20076;-69
2022/06/18 03:04:28;;;;;;;14.85;3.70;;;;;;;;;;5059743;28;20044;-77
2022/06/18 03:06:54;;;;;;;10.45;2.90;;;;;;;;;;5056571;28;20040;-72
2022/06/18 03:09:20;;;;;;;12.57;3.15;;;;;;;;;;5057251;28;20551;-70
2022/06/18 03:14:30;;;;;;;14.80;3.10;;;;;;;;;;5059771;28;20045;-75
2022/06/18 03:16:56;;;;;;;9.02;3.13;;;;;;;;;;5057356;28;20114;-69
2022/06/18 03:19:39;;;;;;;5.35;2.58;;;;;;;;;;5053619;28;20048;-76
2022/06/18 03:22:09;;;;;;;14.35;2.72;;;;;;;;;;5058982;28;20056;-72
2022/06/18 03:24:34;;;;;;;10.93;3.17;;;;;;;;;;5048873;28;20068;-68
2022/06/18 03:27:00;;;;;;;9.98;3.08;;;;;;;;;;5057015;28;20072;-70
2022/06/18 03:29:26;;;;;;;9.25;3.00;;;;;;;;;;5056443;28;20501;-72
2022/06/18 03:31:52;;;;;;;11.02;3.58;;;;;;;;;;5047753;28;20082;-74
2022/06/18 03:34:18;;;;;;;10.40;3.50;;;;;;;;;;5061687;28;20052;-71
2022/06/18 03:36:44;;;;;;;9.60;3.38;;;;;;;;;;5065019;28;20048;-73
2022/06/18 03:39:11;;;;;;;13.48;3.83;;;;;;;;;;5054702;28;20053;-69
2022/06/18 03:41:37;;;;;;;13.38;4.38;;;;;;;;;;5055772;28;20040;-79
2022/06/18 03:44:04;;;;;;;14.93;3.40;;;;;;;;;;5053861;28;20570;-69
2022/06/18 03:46:30;;;;;;;14.63;3.88;;;;;;;;;;5050075;28;20045;-72
2022/06/18 03:48:59;;;;;;;11.43;3.38;;;;;;;;;;5066787;28;20383;-72
2022/06/18 03:51:26;;;;;;;9.98;3.58;;;;;;;;;;5058639;28;20095;-68
2022/06/18 03:53:53;;;;;;;8.23;3.35;;;;;;;;;;5054056;28;20048;-71
2022/06/18 03:56:21;;;;;;;15.65;3.92;;;;;;;;;;5064769;28;20101;-68
2022/06/18 03:58:48;;;;;;;10.40;3.45;;;;;;;;;;5054794;28;20071;-70
2022/06/18 04:01:17;;;;;;;11.85;3.55;;;;;;;;;;5067352;28;20059;-69
2022/06/18 04:03:43;;;;;;;11.70;3.28;;;;;;;;;;5058438;28;20048;-73
2022/06/18 04:06:10;;;;;;;10.57;3.45;;;;;;;;;;5058077;28;20390;-68
2022/06/18 04:08:36;;;;;;;14.15;3.67;;;;;;;;;;5056203;28;20047;-76
2022/06/18 04:11:03;;;;;;;16.13;3.88;;;;;;;;;;5065372;28;20474;-71
2022/06/18 04:13:29;;;;;;;10.57;3.08;;;;;;;;;;5057247;28;20043;-70
2022/06/18 04:15:55;;;;;;;12.63;3.63;;;;;;;;;;5054594;28;20067;-69
2022/06/18 04:18:21;;;;;;;10.48;3.85;;;;;;;;;;5059273;28;20040;-69
2022/06/18 04:20:47;;;;;;;12.75;3.95;;;;;;;;;;5054835;28;20375;-71
2022/06/18 04:23:15;;;;;;;10.27;3.53;;;;;;;;;;5056309;28;20033;-77
2022/06/18 04:25:42;;;;;;;11.23;3.50;;;;;;;;;;5050505;28;20053;-74
2022/06/18 04:28:14;;;;;;;22.88;4.05;;;;;;;;;;5063889;28;20466;-69
2022/06/18 04:30:40;;;;;;;10.73;3.47;;;;;;;;;;5055311;28;20099;-76
2022/06/18 04:33:07;;;;;;;12.50;3.60;;;;;;;;;;5054520;28;20549;-72
2022/06/18 04:35:33;;;;;;;16.30;3.70;;;;;;;;;;5055948;28;20044;-72
2022/06/18 04:38:00;;;;;;;12.18;3.28;;;;;;;;;;5055871;28;20178;-73
2022/06/18 04:40:32;;;;;;;15.07;3.17;;;;;;;;;;5057413;28;20059;-73
2022/06/18 04:43:03;;;;;;;8.50;2.97;;;;;;;;;;5048080;28;20210;-67
2022/06/18 04:45:30;;;;;;;10.32;3.22;;;;;;;;;;5060154;28;20052;-72
2022/06/18 04:47:56;;;;;;;11.77;3.10;;;;;;;;;;5061202;28;20052;-69
2022/06/18 04:50:29;;;;;;;11.13;3.65;;;;;;;;;;5058814;28;20712;-71
2022/06/18 04:52:54;;;;;;;11.23;2.80;;;;;;;;;;5054700;28;20063;-69
2022/06/18 04:55:20;;;;;;;9.52;2.60;;;;;;;;;;5055605;28;20041;-74
2022/06/18 04:57:46;;;;;;;11.68;2.60;;;;;;;;;;5056661;28;20116;-72
2022/06/18 05:00:13;;;;;;;14.40;3.58;;;;;;;;;;5057771;28;20469;-73
2022/06/18 05:02:40;;;;;;;11.95;3.10;;;;;;;;;;5060430;28;20139;-71
2022/06/18 05:05:13;;;;;;;13.45;2.83;;;;;;;;;;5060689;28;20092;-69
2022/06/18 05:07:39;;;;;;;10.02;3.40;;;;;;;;;;5058821;28;20068;-70
2022/06/18 05:10:05;;;;;;;14.00;2.65;;;;;;;;;;5059071;28;20052;-70
2022/06/18 05:12:31;;;;;;;8.77;3.00;;;;;;;;;;5058868;28;20369;-69
2022/06/18 05:14:57;;;;;;;9.13;3.17;;;;;;;;;;5060428;28;20055;-73
2022/06/18 05:17:26;;;;;;;11.43;2.80;;;;;;;;;;5075886;28;20090;-73
2022/06/18 05:19:53;;;;;;;12.10;2.92;;;;;;;;;;5060565;28;20088;-71
2022/06/18 05:22:21;;;;;;;14.68;3.25;;;;;;;;;;5059185;28;20048;-74
2022/06/18 05:24:47;;;;;;;9.40;2.70;;;;;;;;;;5059973;28;20044;-72
2022/06/18 05:27:22;;;;;;;7.47;2.80;;;;;;;;;;5058417;28;20036;-74
2022/06/18 05:29:47;;;;;;;;;;;;;;;;;;5054483;28;20456;-68
2022/06/18 05:32:13;;;;;;;15.13;3.33;;;;;;;;;;5054903;28;19969;-75
2022/06/18 05:34:39;;;;;;;11.18;3.22;;;;;;;;;;5055307;28;20143;-73
2022/06/18 05:37:17;;;;;;;13.02;3.33;;;;;;;;;;5058309;28;20198;-74
2022/06/18 05:39:43;;;;;;;10.20;3.33;;;;;;;;;;5059152;28;20048;-71
2022/06/18 05:42:09;;;;;;;17.27;3.65;;;;;;;;;;5056709;28;20060;-75
2022/06/18 05:44:36;;;;;;;14.60;3.38;;;;;;;;;;5059050;28;20056;-72
2022/06/18 05:47:14;;;;;;;10.60;3.45;;;;;;;;;;5056595;28;20064;-68
2022/06/18 05:49:41;;;;;;;14.90;3.55;;;;;;;;;;5057553;28;20186;-76
2022/06/18 05:52:08;;;;;;;11.95;3.33;;;;;;;;;;5060420;28;20051;-69
2022/06/18 05:54:34;;;;;;;15.30;3.47;;;;;;;;;;5058663;28;20059;-74
2022/06/18 05:57:00;;;;;;;17.30;3.90;;;;;;;;;;5061919;28;20478;-70
2022/06/18 05:59:26;;;;;;;16.58;3.78;;;;;;;;;;5059105;28;20063;-74
2022/06/18 06:01:56;;;;;;;14.27;3.67;;;;;;;;;;5055479;28;20113;-76
2022/06/18 06:04:26;;;;;;;18.38;3.33;;;;;;;;;;5056509;28;20143;-76
2022/06/18 06:06:53;;;;;;;11.95;3.92;;;;;;;;;;5059775;28;20048;-77
2022/06/18 06:12:12;;;;;;;13.77;4.20;;;;;;;;;;5057701;28;20086;-72
2022/06/18 06:14:39;;;;;;;17.20;4.60;;;;;;;;;;5057557;28;20098;-74
2022/06/18 06:17:10;;;;;;;16.52;3.72;;;;;;;;;;5052711;28;20135;-69
2022/06/18 06:19:36;;;;;;;12.95;4.03;;;;;;;;;;5057209;28;20135;-69
2022/06/18 06:22:02;;;;;;;13.07;4.20;;;;;;;;;;5055720;28;20063;-75
2022/06/18 06:24:28;;;;;;;18.17;4.93;;;;;;;;;;5059463;28;20052;-72
2022/06/18 06:26:54;;;;;;;16.15;4.18;;;;;;;;;;5059685;28;20543;-79
2022/06/18 06:29:20;;;;;;;11.20;4.20;;;;;;;;;;5057807;28;20454;-79
2022/06/18 06:31:46;;;;;;;19.20;4.88;;;;;;;;;;5057114;28;20045;-77
2022/06/18 06:34:12;;;;;;;21.17;4.43;;;;;;;;;;5055587;28;20076;-76
2022/06/18 06:36:39;;;;;;;16.48;4.07;;;;;;;;;;5055722;28;20067;-79
2022/06/18 06:39:05;;;;;;;14.63;4.20;;;;;;;;;;5059650;28;20068;-77
2022/06/18 06:41:32;;;;;;;22.20;4.22;;;;;;;;;;5056318;28;20063;-71
2022/06/18 06:43:58;;;;;;;11.02;4.03;;;;;;;;;;5051272;28;20093;-73
2022/06/18 06:46:24;;;;;;;25.67;4.50;;;;;;;;;;5055121;28;20040;-77
2022/06/18 06:48:50;;;;;;;16.90;4.53;;;;;;;;;;5060134;28;20048;-73
2022/06/18 06:51:22;;;;;;;14.63;4.53;;;;;;;;;;5055062;28;20049;-73
2022/06/18 06:53:47;;;;;;;21.25;4.97;;;;;;;;;;5060240;28;20044;-74
2022/06/18 06:59:00;;;;;;;21.65;4.28;;;;;;;;;;5064942;28;20052;-83
2022/06/18 07:01:26;;;;;;;23.35;4.60;;;;;;;;;;5066588;28;20059;-75
2022/06/18 07:03:52;;;;;;;18.10;4.20;;;;;;;;;;5067226;28;20482;-76
2022/06/18 07:06:18;;;;;;;14.63;4.80;;;;;;;;;;5063688;28;20109;-75
2022/06/18 07:08:44;;;;;;;17.92;3.70;;;;;;;;;;5063337;28;20374;-70
2022/06/18 07:11:12;;;;;;;20.17;4.30;;;;;;;;;;5059736;28;20063;-75
2022/06/18 07:13:38;;;;;;;17.38;3.90;;;;;;;;;;5058799;28;20045;-71
2022/06/18 07:16:04;;;;;;;15.15;4.18;;;;;;;;;;5060876;28;20090;-72
2022/06/18 07:18:35;;;;;;;18.77;3.88;;;;;;;;;;5060014;28;20126;-69
2022/06/18 07:21:03;;;;;;;22.13;3.90;;;;;;;;;;5055312;28;20044;-70
2022/06/18 07:23:30;;;;;;;18.48;3.45;;;;;;;;;;5054564;28;20059;-69
2022/06/18 07:25:56;;;;;;;15.43;3.42;;;;;;;;;;5059355;28;20087;-69
2022/06/18 07:28:22;;;;;;;14.38;3.65;;;;;;;;;;5063033;28;20064;-76
2022/06/18 07:30:48;;;;;;;20.75;4.18;;;;;;;;;;5067114;28;20574;-75
2022/06/18 07:33:18;;;;;;;16.38;3.90;;;;;;;;;;5062690;28;20041;-77
2022/06/18 07:35:44;;;;;;;23.33;4.10;;;;;;;;;;5063869;28;20052;-72
2022/06/18 07:38:09;;;;;;;17.45;3.80;;;;;;;;;;5066342;28;20057;-72
2022/06/18 07:40:41;;;;;;;14.05;3.28;;;;;;;;;;5065410;28;20048;-71
2022/06/18 07:43:08;;;;;;;19.05;3.63;;;;;;;;;;5062583;28;20443;-70
2022/06/18 07:45:34;;;;;;;22.98;3.95;;;;;;;;;;5063184;28;20060;-75
2022/06/18 07:48:00;;;;;;;25.67;3.88;;;;;;;;;;5061543;28;20106;-74
2022/06/18 07:50:26;;;;;;;16.20;3.30;;;;;;;;;;5062877;28;20452;-69
2022/06/18 07:52:52;;;;;;;23.95;3.88;;;;;;;;;;5062061;28;20055;-72
2022/06/18 07:55:23;;;;;;;18.25;3.55;;;;;;;;;;5058364;28;20037;-71
2022/06/18 07:57:49;;;;;;;18.45;3.38;;;;;;;;;;5059802;28;20105;-71
2022/06/18 08:00:18;;;;;;;25.95;4.10;;;;;;;;;;5061984;28;20454;-75
2022/06/18 08:02:44;;;;;;;15.57;3.70;;;;;;;;;;5058552;28;20072;-77
2022/06/18 08:05:12;;;;;;;28.92;4.57;;;;;;;;;;5061943;28;20975;-70
2022/06/18 08:07:39;;;;;;;17.65;3.38;;;;;;;;;;5061769;28;20105;-72
2022/06/18 08:10:06;;;;;;;19.20;3.85;;;;;;;;;;5064507;28;20055;-71
2022/06/18 08:12:33;;;;;;;15.40;3.50;;;;;;;;;;5062138;28;20054;-74
2022/06/18 08:15:01;;;;;;;19.63;3.88;;;;;;;;;;5061226;28;20049;-74
2022/06/18 08:17:27;;;;;;;18.30;3.83;;;;;;;;;;5064246;28;20493;-72
2022/06/18 08:19:53;;;;;;;17.05;3.20;;;;;;;;;;5063527;28;20512;-71
2022/06/18 08:22:22;;;;;;;22.27;4.05;;;;;;;;;;5063762;28;20406;-68
2022/06/18 08:24:48;;;;;;;17.67;4.45;;;;;;;;;;5056832;28;20140;-74
2022/06/18 08:27:15;;;;;;;12.45;3.25;;;;;;;;;;5059909;28;20879;-73
2022/06/18 08:29:41;;;;;;;13.45;3.47;;;;;;;;;;5051313;28;20105;-73
2022/06/18 08:32:08;;;;;;;15.20;3.58;;;;;;;;;;5059219;28;20044;-73
2022/06/18 08:34:33;;;;;;;15.75;3.17;;;;;;;;;;5049514;28;20076;-73
2022/06/18 08:37:03;;;;;;;8.48;2.55;;;;;;;;;;5059831;28;20064;-73
2022/06/18 08:39:30;;;;;;;13.68;2.72;;;;;;;;;;5059388;28;20477;-72
2022/06/18 08:42:03;;;;;;;18.58;2.70;;;;;;;;;;5057413;28;20475;-73
2022/06/18 08:44:57;;;;;;;17.67;3.03;;;;;;;;;;5057798;28;20238;-70
2022/06/18 08:47:26;;;;;;;;;;;;;;;;;;5059866;28;20067;-72
2022/06/18 08:50:29;;;;;;;13.88;2.30;;;;;;;;;;5059125;28;19920;-75
2022/06/18 08:53:01;;;;;;;13.95;2.83;;;;;;;;;;5061027;28;20060;-77
2022/06/18 08:55:59;;;;;;;11.10;2.75;;;;;;;;;;5062314;28;20067;-73
2022/06/18 08:58:38;;;;;;;11.27;2.45;;;;;;;;;;5057923;28;20060;-70
2022/06/18 09:01:27;;;;;;;14.23;3.20;;;;;;;;;;5061593;28;20543;-70
2022/06/18 09:04:01;;;;;;;9.55;2.55;;;;;;;;;;5062119;28;20373;-75
2022/06/18 09:06:46;;;;;;;14.10;3.08;;;;;;;;;;5061461;28;20486;-68
2022/06/18 09:09:23;;;;;;;14.77;2.58;;;;;;;;;;5060176;28;20048;-72
2022/06/18 09:11:58;;;;;;;16.33;2.80;;;;;;;;;;5053507;28;20056;-73
2022/06/18 09:14:28;;;;;;;21.98;4.57;;;;;;;;;;5058763;28;20052;-73
2022/06/18 09:17:31;;;;;;;14.02;3.28;;;;;;;;;;5059736;28;20083;-70
2022/06/18 09:20:22;;;;;;;15.05;4.25;;;;;;;;;;5035826;28;20045;-67
2022/06/18 09:22:53;;;;;;;11.60;3.95;;;;;;;;;;5034995;28;20053;-76
2022/06/18 09:25:23;;;;;;;15.52;3.88;;;;;;;;;;5035190;28;20127;-66
2022/06/18 09:27:57;;;;;;;12.88;4.07;;;;;;;;;;5037897;28;20145;-67
2022/06/18 09:30:33;;;;;;;13.02;3.13;;;;;;;;;;5037723;28;20079;-65
2022/06/18 09:33:08;;;;;;;14.15;3.70;;;;;;;;;;5037133;28;20060;-69
2022/06/18 09:35:47;;;;;;;11.75;3.42;;;;;;;;;;5033613;28;20045;-67
2022/06/18 09:38:28;;;;;;;15.15;3.80;;;;;;;;;;5035881;28;20129;-66
2022/06/18 09:40:58;;;;;;;10.27;3.03;;;;;;;;;;5019841;28;20061;-73
2022/06/18 09:43:49;;;;;;;13.18;2.80;;;;;;;;;;5031742;28;20064;-69
2022/06/18 09:46:19;;;;;;;14.38;3.05;;;;;;;;;;5034912;28;20045;-68
2022/06/18 09:48:45;;;;;;;11.25;3.58;;;;;;;;;;5033382;28;20126;-70
2022/06/18 09:51:29;;;;;;;11.07;2.65;;;;;;;;;;5032155;28;20329;-70
2022/06/18 09:54:00;;;;;;;11.73;2.80;;;;;;;;;;5032966;28;20049;-69
2022/06/18 09:56:32;;;;;;;13.05;2.97;;;;;;;;;;5042448;28;20573;-67
2022/06/18 09:59:03;;;;;;;10.30;2.20;;;;;;;;;;5057826;28;20059;-67
2022/06/18 10:01:39;;;;;;;9.55;2.70;;;;;;;;;;5058368;28;20060;-65
2022/06/18 10:06:52;;;;;;;17.38;3.65;;;;;;;;;;5053571;28;20051;-68
2022/06/18 10:09:38;;;;;;;17.30;3.05;;;;;;;;;;5056892;28;20054;-72
2022/06/18 10:12:24;;;;;;;6.38;2.72;;;;;;;;;;5057962;28;20053;-67
2022/06/18 10:14:55;;;;;;;13.68;2.95;;;;;;;;;;5055327;28;20049;-73
2022/06/18 10:17:29;;;;;;;11.55;2.78;;;;;;;;;;5059379;28;20579;-71
2022/06/18 10:20:09;;;;;;;8.13;2.70;;;;;;;;;;5056927;28;20040;-71
2022/06/18 10:22:47;;;;;;;13.55;2.72;;;;;;;;;;5056360;28;20115;-71
2022/06/18 10:25:42;;;;;;;11.32;2.90;;;;;;;;;;5057735;28;20059;-71
2022/06/18 10:28:21;;;;;;;11.85;2.70;;;;;;;;;;5054867;28;20101;-69
2022/06/18 10:31:21;;;;;;;15.40;2.50;;;;;;;;;;5059667;28;20059;-69
2022/06/18 10:33:53;;;;;;;13.32;3.20;;;;;;;;;;5056429;28;20048;-72
2022/06/18 10:37:07;;;;;;;14.40;2.72;;;;;;;;;;5059057;28;20056;-70
2022/06/18 10:39:50;;;;;;;23.58;3.60;;;;;;;;;;5036206;28;20124;-71
2022/06/18 10:42:31;;;;;;;35.88;3.80;;;;;;;;;;5033303;28;20111;-71
2022/06/18 10:45:31;;;;;;;16.35;3.28;;;;;;;;;;5033281;28;20061;-70
2022/06/18 10:47:57;;;;;;;57.15;4.40;;;;;;;;;;5035912;28;20088;-71
2022/06/18 10:50:26;;;;;;;27.58;3.80;;;;;;;;;;5018855;28;20075;-69
2022/06/18 10:53:06;;;;;;;17.70;2.92;;;;;;;;;;5030677;28;20175;-70
2022/06/18 10:55:33;;;;;;;11.40;3.13;;;;;;;;;;5033576;28;20898;-74
2022/06/18 10:58:15;;;;;;;9.45;2.92;;;;;;;;;;5031778;28;20045;-68
2022/06/18 11:01:00;;;;;;;8.98;2.78;;;;;;;;;;5033007;28;20616;-72
2022/06/18 11:03:31;;;;;;;14.65;3.00;;;;;;;;;;5018017;28;20509;-72
2022/06/18 11:05:58;;;;;;;10.80;3.03;;;;;;;;;;5031905;28;20056;-70
2022/06/18 11:08:30;;;;;;;8.57;3.10;;;;;;;;;;5035312;28;20049;-70
2022/06/18 11:11:01;;;;;;;12.77;3.00;;;;;;;;;;5048039;28;20057;-69
2022/06/18 11:13:37;;;;;;;8.77;3.13;;;;;;;;;;5058353;28;20504;-69
2022/06/18 11:16:38;;;;;;;9.63;3.03;;;;;;;;;;5054694;28;20091;-71
2022/06/18 11:19:16;;;;;;;14.32;2.85;;;;;;;;;;5034811;28;20130;-69
2022/06/18 11:21:45;;;;;;;9.38;2.47;;;;;;;;;;5035381;28;20147;-69
2022/06/18 11:24:11;;;;;;;7.10;2.33;;;;;;;;;;5032702;28;20211;-75
2022/06/18 11:26:41;;;;;;;11.82;2.75;;;;;;;;;;5032526;28;20085;-72
2022/06/18 11:29:26;;;;;;;8.73;2.60;;;;;;;;;;5033184;28;20060;-75
2022/06/18 11:31:56;;;;;;;11.68;2.78;;;;;;;;;;5033723;28;20262;-73
2022/06/18 11:34:25;;;;;;;13.20;3.40;;;;;;;;;;5029853;28;20565;-71
2022/06/18 11:36:54;;;;;;;10.68;2.90;;;;;;;;;;5033011;28;20099;-70
2022/06/18 11:39:41;;;;;;;12.73;3.50;;;;;;;;;;5032734;28;20126;-70
2022/06/18 11:42:16;;;;;;;15.40;3.42;;;;;;;;;;5036330;28;20505;-70
2022/06/18 11:45:01;;;;;;;11.20;2.85;;;;;;;;;;5031654;28;20283;-71
2022/06/18 11:47:32;;;;;;;13.68;3.75;;;;;;;;;;5038170;28;20717;-70
2022/06/18 11:50:06;;;;;;;12.63;3.10;;;;;;;;;;5032545;28;20111;-70
2022/06/18 11:52:42;;;;;;;12.55;2.80;;;;;;;;;;5038529;28;20045;-71
2022/06/18 11:55:39;;;;;;;11.65;3.40;;;;;;;;;;5058887;28;20041;-71
2022/06/18 11:58:18;;;;;;;10.18;3.42;;;;;;;;;;5053270;28;20397;-69
2022/06/18 12:01:05;;;;;;;9.40;3.28;;;;;;;;;;5056611;28;20362;-70
2022/06/18 12:04:04;;;;;;;7.90;2.63;;;;;;;;;;5054280;28;20047;-69
2022/06/18 12:06:32;;;;;;;12.60;2.60;;;;;;;;;;5065205;28;20052;-70
2022/06/18 12:08:58;;;;;;;11.23;3.40;;;;;;;;;;5052446;28;20076;-69
2022/06/18 12:11:36;;;;;;;12.63;3.60;;;;;;;;;;5060530;28;20072;-68
2022/06/18 12:14:28;;;;;;;11.30;2.80;;;;;;;;;;5056441;28;20695;-67
2022/06/18 12:17:09;;;;;;;5.90;2.65;;;;;;;;;;5064592;28;20071;-67
2022/06/18 12:19:58;;;;;;;11.85;2.70;;;;;;;;;;5062325;28;20064;-70
2022/06/18 12:22:27;;;;;;;9.73;2.70;;;;;;;;;;5060879;28;20458;-65
2022/06/18 12:25:31;;;;;;;9.38;2.60;;;;;;;;;;5050030;28;20145;-69
2022/06/18 12:28:06;;;;;;;;;;;;;;;;;;5054372;28;20140;-67
2022/06/18 12:30:45;;;;;;;8.80;2.67;;;;;;;;;;5056834;28;19921;-66
2022/06/18 12:33:13;;;;;;;9.30;2.92;;;;;;;;;;5057995;28;20616;-66
2022/06/18 12:35:45;;;;;;;8.70;2.65;;;;;;;;;;5059529;28;20494;-66
2022/06/18 12:38:21;;;;;;;15.50;3.35;;;;;;;;;;5051530;28;20139;-68
2022/06/18 12:41:19;;;;;;;14.32;2.95;;;;;;;;;;5059928;28;20052;-67
2022/06/18 12:44:02;;;;;;;10.43;2.63;;;;;;;;;;5050515;28;20435;-68
2022/06/18 12:46:36;;;;;;;7.63;2.55;;;;;;;;;;5049311;28;20055;-69
2022/06/18 12:49:17;;;;;;;8.50;3.00;;;;;;;;;;5054618;28;20219;-67
2022/06/18 12:51:43;;;;;;;11.45;2.90;;;;;;;;;;5054654;28;20106;-66
2022/06/18 12:54:29;;;;;;;8.02;2.80;;;;;;;;;;5056608;28;20484;-64
2022/06/18 12:57:22;;;;;;;8.50;3.10;;;;;;;;;;5061885;28;20051;-63
2022/06/18 13:00:13;;;;;;;11.45;3.38;;;;;;;;;;5061232;28;20045;-62
2022/06/18 13:02:49;;;;;;;10.35;2.90;;;;;;;;;;5066886;28;20405;-64
2022/06/18 13:05:32;;;;;;;11.27;3.45;;;;;;;;;;5063804;28;20527;-62
2022/06/18 13:08:23;;;;;;;10.07;3.30;;;;;;;;;;5060054;28;20114;-65
2022/06/18 13:11:16;;;;;;;15.43;2.80;;;;;;;;;;5052266;28;20082;-62
2022/06/18 13:13:57;;;;;;;8.80;2.30;;;;;;;;;;5057730;28;20055;-65
2022/06/18 13:16:40;;;;;;;8.50;2.33;;;;;;;;;;5065175;28;20556;-64
2022/06/18 13:19:16;;;;;;;9.40;2.35;;;;;;;;;;5059680;28;20060;-68
2022/06/18 13:21:43;;;;;;;9.82;2.47;;;;;;;;;;5055346;28;20541;-67
2022/06/18 13:30:30;;;;;;;5.88;2.33;;;;;;;;;;5035351;28;20053;-63
2022/06/18 13:33:45;;;;;;;10.20;2.30;;;;;;;;;;5051807;28;20125;-63
2022/06/18 13:36:26;;;;;;;5.35;2.00;;;;;;;;;;5040866;28;20460;-65
2022/06/18 13:39:07;;;;;;;9.80;2.33;;;;;;;;;;5043367;28;20411;-62
2022/06/18 13:41:38;;;;;;;9.77;2.30;;;;;;;;;;5041544;28;20051;-62
2022/06/18 13:44:28;;;;;;;4.97;2.10;;;;;;;;;;5042587;28;20052;-61
2022/06/18 13:47:13;;;;;;;8.52;2.10;;;;;;;;;;5038234;28;20049;-61
2022/06/18 13:49:59;;;;;;;5.85;2.00;;;;;;;;;;5035432;28;20046;-66
2022/06/18 13:52:37;;;;;;;7.13;2.22;;;;;;;;;;5028640;28;20447;-69
2022/06/18 13:55:03;;;;;;;10.38;2.30;;;;;;;;;;5032760;28;20242;-64
2022/06/18 13:57:41;;;;;;;10.98;2.65;;;;;;;;;;5031067;28;20056;-66
2022/06/18 14:00:22;;;;;;;8.80;2.15;;;;;;;;;;5035560;28;20052;-65
2022/06/18 14:03:15;;;;;;;7.30;1.90;;;;;;;;;;5032130;28;20098;-69
2022/06/18 14:05:46;;;;;;;6.07;2.35;;;;;;;;;;5034827;28;20060;-69
2022/06/18 14:08:30;;;;;;;6.75;2.13;;;;;;;;;;5049022;28;20583;-65
2022/06/18 14:11:00;;;;;;;11.32;1.70;;;;;;;;;;5053577;28;20133;-64
2022/06/18 14:13:27;;;;;;;6.55;1.95;;;;;;;;;;5055694;28;20347;-66
2022/06/18 14:15:57;;;;;;;5.93;2.20;;;;;;;;;;5055160;28;20062;-67
2022/06/18 14:18:23;;;;;;;7.80;2.67;;;;;;;;;;5052390;28;20110;-62
2022/06/18 14:21:05;;;;;;;7.82;2.33;;;;;;;;;;5051858;28;20517;-66
2022/06/18 14:23:37;;;;;;;7.50;2.13;;;;;;;;;;5055754;28;20071;-64
2022/06/18 14:26:15;;;;;;;7.82;2.33;;;;;;;;;;5049715;28;20045;-63
2022/06/18 14:28:44;;;;;;;8.88;2.53;;;;;;;;;;5055866;28;20067;-63
2022/06/18 14:31:13;;;;;;;5.95;2.38;;;;;;;;;;5056032;28;20464;-62
2022/06/18 14:33:44;;;;;;;13.40;2.75;;;;;;;;;;5059345;28;20041;-64
2022/06/18 14:36:20;;;;;;;4.72;1.80;;;;;;;;;;5056405;28;20520;-64
2022/06/18 14:38:49;;;;;;;6.25;1.58;;;;;;;;;;5058009;28;20355;-66
2022/06/18 14:44:36;;;;;;;5.40;1.60;;;;;;;;;;5054138;28;20048;-65
2022/06/18 14:47:27;;;;;;;7.13;2.00;;;;;;;;;;5053187;28;20158;-65
2022/06/18 14:50:20;;;;;;;4.03;1.60;;;;;;;;;;5058080;28;20071;-65
2022/06/18 14:53:02;;;;;;;13.20;2.03;;;;;;;;;;5058192;28;20048;-66
2022/06/18 14:55:56;;;;;;;10.95;2.58;;;;;;;;;;5053976;28;20402;-65
2022/06/18 14:58:51;;;;;;;5.40;1.80;;;;;;;;;;5054458;28;20063;-65
2022/06/18 15:01:39;;;;;;;5.70;1.88;;;;;;;;;;5053839;28;20145;-64
2022/06/18 15:04:10;;;;;;;3.78;1.55;;;;;;;;;;5052302;28;20053;-62
2022/06/18 15:06:37;;;;;;;7.22;2.30;;;;;;;;;;5055692;28;20060;-64
2022/06/18 15:09:05;;;;;;;6.50;2.03;;;;;;;;;;5053478;28;20064;-70
2022/06/18 15:11:31;;;;;;;4.15;1.85;;;;;;;;;;5055266;28;20052;-65
2022/06/18 15:13:59;;;;;;;10.23;2.47;;;;;;;;;;5056899;28;20056;-67
2022/06/18 15:16:47;;;;;;;7.15;2.40;;;;;;;;;;5056414;28;20327;-68
2022/06/18 15:22:03;;;;;;;9.13;2.40;;;;;;;;;;5056016;28;20040;-63
2022/06/18 15:27:12;;;;;;;7.25;1.90;;;;;;;;;;5055577;28;20098;-64
2022/06/18 15:29:53;;;;;;;3.97;1.30;;;;;;;;;;5055584;28;20440;-62
2022/06/18 15:32:28;;;;;;;6.93;1.90;;;;;;;;;;5052939;28;20148;-67
2022/06/18 15:35:17;;;;;;;5.50;1.70;;;;;;;;;;5055626;28;20688;-64
2022/06/18 15:37:56;;;;;;;6.05;1.50;;;;;;;;;;5052668;28;20048;-63